Time;durP1;ratioP1;P1;durP2;ratioP2;P2;SDS_P1;SDS_P2;PMS_P1;PMS_P2;Temp;Humidity;BMP_temperature;BMP_pressure;BME280_temperature;BME280_humidity;BME280_pressure;Samples;Min_cycle;Max_cycle;Signal;HPM_P1;HPM_P2
2024/01/29 00:01:19;;;;;;;14.50;13.40;;;8.40;15.70;;;;;;6285482;22;20381;-80
2024/01/29 00:03:46;;;;;;;12.90;12.07;;;8.30;16.20;;;;;;6286513;22;20396;-80
2024/01/29 00:06:11;;;;;;;13.97;12.97;;;8.30;16.50;;;;;;6313618;22;20189;-80
2024/01/29 00:08:37;;;;;;;12.93;12.00;;;8.30;16.40;;;;;;6286602;22;20446;-80
2024/01/29 00:11:03;;;;;;;13.30;12.40;;;8.30;16.50;;;;;;6287196;22;20146;-81
2024/01/29 00:13:28;;;;;;;14.87;13.87;;;8.30;16.50;;;;;;6314965;22;20173;-81
2024/01/29 00:15:54;;;;;;;12.73;11.83;;;8.30;16.10;;;;;;6314420;22;20150;-82
2024/01/29 00:18:19;;;;;;;13.07;12.17;;;8.30;16.40;;;;;;6316307;22;20157;-81
2024/01/29 00:20:45;;;;;;;13.73;12.33;;;8.30;16.30;;;;;;6292845;22;20576;-80
2024/01/29 00:23:10;;;;;;;12.80;11.90;;;8.40;16.30;;;;;;6318469;22;20166;-82
2024/01/29 00:25:36;;;;;;;11.30;10.40;;;8.40;16.00;;;;;;6316841;22;20207;-79
2024/01/29 00:28:02;;;;;;;13.27;12.30;;;8.20;16.20;;;;;;6318272;22;20177;-78
2024/01/29 00:30:27;;;;;;;12.50;11.63;;;7.90;16.70;;;;;;6320810;22;20211;-80
2024/01/29 00:32:53;;;;;;;11.63;10.83;;;8.00;16.90;;;;;;6287838;22;20157;-81
2024/01/29 00:35:18;;;;;;;13.37;12.37;;;8.00;16.80;;;;;;6286230;22;20213;-79
2024/01/29 00:37:44;;;;;;;13.40;12.37;;;8.10;16.80;;;;;;6312473;22;20592;-79
2024/01/29 00:40:10;;;;;;;12.57;11.67;;;8.20;16.50;;;;;;6312394;22;20231;-80
2024/01/29 00:42:35;;;;;;;13.20;12.20;;;8.20;16.50;;;;;;6285759;22;20160;-80
2024/01/29 00:45:01;;;;;;;14.20;13.20;;;8.20;16.40;;;;;;6312385;22;20786;-79
2024/01/29 00:47:27;;;;;;;14.50;13.50;;;8.20;16.40;;;;;;6313931;22;20178;-79
2024/01/29 00:49:52;;;;;;;12.93;12.03;;;8.20;16.60;;;;;;6287604;22;20580;-80
2024/01/29 00:52:18;;;;;;;13.40;12.50;;;8.20;16.80;;;;;;6287511;22;20724;-81
2024/01/29 00:54:52;;;;;;;13.33;12.43;;;8.20;16.70;;;;;;6313203;22;20206;-81
2024/01/29 00:57:20;;;;;;;13.97;13.07;;;8.20;16.40;;;;;;6288975;22;20146;-82
2024/01/29 00:59:46;;;;;;;12.90;12.00;;;8.20;16.40;;;;;;6293270;22;20380;-82
2024/01/29 01:02:11;;;;;;;13.70;12.80;;;8.20;16.30;;;;;;6291275;22;20414;-82
2024/01/29 01:04:38;;;;;;;14.07;13.07;;;8.10;16.40;;;;;;6299298;22;20438;-82
2024/01/29 01:07:03;;;;;;;14.03;13.13;;;8.10;16.50;;;;;;6259578;22;20187;-82
2024/01/29 01:09:29;;;;;;;12.97;12.17;;;8.10;16.50;;;;;;6256939;22;20392;-82
2024/01/29 01:11:54;;;;;;;13.00;12.20;;;8.10;16.40;;;;;;6256906;22;20218;-82
2024/01/29 01:14:20;;;;;;;14.43;13.43;;;8.00;16.40;;;;;;6258005;22;20178;-81
2024/01/29 01:16:46;;;;;;;13.43;12.53;;;8.10;16.40;;;;;;6261819;22;20567;-82
2024/01/29 01:19:12;;;;;;;14.03;13.13;;;8.10;16.50;;;;;;6262282;22;20385;-82
2024/01/29 01:21:37;;;;;;;13.97;13.03;;;8.10;16.40;;;;;;6262434;22;20194;-82
2024/01/29 01:24:03;;;;;;;13.70;12.80;;;8.00;16.70;;;;;;6261727;22;20171;-82
2024/01/29 01:26:29;;;;;;;14.60;13.60;;;7.90;17.00;;;;;;6259425;22;20166;-83
2024/01/29 01:28:54;;;;;;;14.07;13.10;;;7.90;16.90;;;;;;6286972;22;21084;-83
2024/01/29 01:31:20;;;;;;;13.40;12.43;;;8.00;16.80;;;;;;6259345;22;20224;-83
2024/01/29 01:33:45;;;;;;;13.70;12.70;;;8.00;16.80;;;;;;6256738;22;20175;-83
2024/01/29 01:36:11;;;;;;;13.40;12.40;;;8.00;16.90;;;;;;6254482;22;20154;-83
2024/01/29 01:38:36;;;;;;;14.90;13.73;;;8.00;16.80;;;;;;6262563;22;20150;-83
2024/01/29 01:41:02;;;;;;;14.30;13.30;;;8.10;16.70;;;;;;6254782;22;20208;-83
2024/01/29 01:43:30;;;;;;;13.13;12.40;;;8.10;16.80;;;;;;6254359;22;20175;-83
2024/01/29 01:46:07;;;;;;;14.27;13.27;;;8.10;16.80;;;;;;6254455;22;20161;-83
2024/01/29 01:48:36;;;;;;;14.07;13.03;;;8.10;16.70;;;;;;6254487;22;20977;-83
2024/01/29 01:51:03;;;;;;;14.47;13.47;;;8.10;16.70;;;;;;6254799;22;20385;-83
2024/01/29 01:53:31;;;;;;;13.47;12.67;;;8.10;16.60;;;;;;6283006;22;20385;-83
2024/01/29 01:55:59;;;;;;;15.40;14.13;;;8.10;16.50;;;;;;6260696;22;20381;-83
2024/01/29 01:58:27;;;;;;;14.33;13.40;;;8.10;16.60;;;;;;6261635;22;20411;-83
2024/01/29 02:00:54;;;;;;;14.93;13.83;;;8.00;16.70;;;;;;6254133;22;20468;-83
2024/01/29 02:03:20;;;;;;;14.43;13.50;;;7.90;16.80;;;;;;6280204;22;20393;-83
2024/01/29 02:05:46;;;;;;;14.93;13.90;;;7.70;17.60;;;;;;6252507;22;20381;-82
2024/01/29 02:08:16;;;;;;;15.90;14.67;;;7.60;18.00;;;;;;6251791;22;20182;-83
2024/01/29 02:10:42;;;;;;;15.00;13.90;;;7.50;18.30;;;;;;6252784;22;20396;-82
2024/01/29 02:13:12;;;;;;;14.73;13.73;;;7.60;18.00;;;;;;6261357;22;20381;-82
2024/01/29 02:15:37;;;;;;;15.80;14.60;;;7.70;18.00;;;;;;6260745;22;20374;-82
2024/01/29 02:18:07;;;;;;;15.97;14.97;;;7.60;17.60;;;;;;6268073;22;20397;-82
2024/01/29 02:20:33;;;;;;;14.33;13.33;;;7.70;18.00;;;;;;6294266;22;20155;-82
2024/01/29 02:22:59;;;;;;;14.57;13.47;;;7.60;18.00;;;;;;6260122;22;20378;-82
2024/01/29 02:25:24;;;;;;;14.00;13.10;;;7.60;17.80;;;;;;6261107;22;20433;-82
2024/01/29 02:27:50;;;;;;;15.67;14.67;;;7.70;17.80;;;;;;6256671;22;20246;-82
2024/01/29 02:30:16;;;;;;;15.47;14.07;;;7.80;17.60;;;;;;6254752;22;20151;-82
2024/01/29 02:32:41;;;;;;;14.53;13.50;;;7.80;17.50;;;;;;6254230;22;20589;-82
2024/01/29 02:35:07;;;;;;;15.57;14.47;;;7.90;17.40;;;;;;6254187;22;20628;-83
2024/01/29 02:37:33;;;;;;;14.70;13.80;;;7.90;17.50;;;;;;6252423;22;20158;-82
2024/01/29 02:39:59;;;;;;;15.00;13.90;;;8.00;17.30;;;;;;6254363;22;20242;-82
2024/01/29 02:42:25;;;;;;;15.37;14.07;;;8.00;16.90;;;;;;6253447;22;20389;-82
2024/01/29 02:44:50;;;;;;;14.60;13.50;;;8.00;17.10;;;;;;6252417;22;20206;-82
2024/01/29 02:47:16;;;;;;;15.20;14.30;;;8.00;17.20;;;;;;6281383;22;20687;-82
2024/01/29 02:49:43;;;;;;;14.30;13.30;;;8.00;17.10;;;;;;6252768;22;20181;-82
2024/01/29 02:52:09;;;;;;;15.17;14.07;;;8.00;17.30;;;;;;6280164;22;20520;-82
2024/01/29 02:54:35;;;;;;;14.50;13.60;;;8.00;17.30;;;;;;6253360;22;20429;-82
2024/01/29 02:57:00;;;;;;;14.40;13.50;;;8.00;17.20;;;;;;6280924;22;20381;-82
2024/01/29 02:59:26;;;;;;;15.77;14.50;;;8.00;17.30;;;;;;6252456;22;20238;-82
2024/01/29 03:01:54;;;;;;;15.03;14.03;;;8.00;17.30;;;;;;6253790;22;20155;-83
2024/01/29 03:04:19;;;;;;;15.70;14.70;;;8.00;17.40;;;;;;6252689;22;20181;-83
2024/01/29 03:06:45;;;;;;;15.10;13.90;;;8.00;17.80;;;;;;6249825;22;20610;-82
2024/01/29 03:09:14;;;;;;;14.87;13.87;;;8.00;17.50;;;;;;6253665;22;20248;-83
2024/01/29 03:11:40;;;;;;;16.00;14.93;;;7.80;17.40;;;;;;6252425;22;20187;-82
2024/01/29 03:14:06;;;;;;;16.30;15.20;;;7.70;18.10;;;;;;6250484;22;20809;-83
2024/01/29 03:16:31;;;;;;;15.40;14.40;;;7.70;17.90;;;;;;6252001;22;20382;-83
2024/01/29 03:18:57;;;;;;;16.77;15.57;;;7.70;17.80;;;;;;6252453;22;20151;-83
2024/01/29 03:21:23;;;;;;;16.50;15.30;;;7.80;17.80;;;;;;6251353;22;20257;-83
2024/01/29 03:23:48;;;;;;;15.63;14.63;;;7.80;17.70;;;;;;6251436;22;20199;-83
2024/01/29 03:26:14;;;;;;;15.20;14.20;;;7.70;17.70;;;;;;6250605;22;20235;-82
2024/01/29 03:28:40;;;;;;;14.23;13.33;;;7.70;17.70;;;;;;6250330;22;20174;-83
2024/01/29 03:31:06;;;;;;;16.43;15.33;;;7.70;18.00;;;;;;6251167;22;20603;-82
2024/01/29 03:33:31;;;;;;;15.80;14.77;;;7.50;18.80;;;;;;6251266;22;20401;-82
2024/01/29 03:35:57;;;;;;;14.87;13.77;;;7.40;18.50;;;;;;6252137;22;20504;-82
2024/01/29 03:38:23;;;;;;;15.40;14.40;;;7.20;18.80;;;;;;6251937;22;20154;-83
2024/01/29 03:40:48;;;;;;;16.90;15.70;;;7.10;19.40;;;;;;6251275;22;20222;-83
2024/01/29 03:43:17;;;;;;;15.77;14.77;;;7.10;19.30;;;;;;6278374;22;20154;-83
2024/01/29 03:45:43;;;;;;;14.70;13.60;;;7.10;19.40;;;;;;6252173;22;20158;-83
2024/01/29 03:48:08;;;;;;;15.97;14.97;;;7.00;19.10;;;;;;6251714;22;20421;-83
2024/01/29 03:50:34;;;;;;;15.70;14.60;;;6.90;19.50;;;;;;6251382;22;20424;-83
2024/01/29 03:53:00;;;;;;;15.27;14.27;;;6.80;20.20;;;;;;6255339;22;20151;-83
2024/01/29 03:55:25;;;;;;;16.73;15.53;;;6.60;20.30;;;;;;6253194;22;20209;-83
2024/01/29 03:57:51;;;;;;;15.00;13.97;;;6.60;21.00;;;;;;6251613;22;20154;-82
2024/01/29 04:00:18;;;;;;;15.40;14.50;;;6.70;20.80;;;;;;6251641;22;20165;-83
2024/01/29 04:02:46;;;;;;;15.30;14.10;;;6.70;20.60;;;;;;6279320;22;20154;-83
2024/01/29 04:05:12;;;;;;;16.07;14.97;;;6.70;20.60;;;;;;6278976;22;20428;-83
2024/01/29 04:07:41;;;;;;;15.83;14.77;;;6.70;20.60;;;;;;6251211;22;20421;-82
2024/01/29 04:10:07;;;;;;;14.23;13.33;;;6.80;20.50;;;;;;6252016;22;20382;-82
2024/01/29 04:12:33;;;;;;;15.73;14.60;;;6.60;20.70;;;;;;6251456;22;20373;-82
2024/01/29 04:14:58;;;;;;;16.20;15.13;;;6.70;20.50;;;;;;6251077;22;20405;-83
2024/01/29 04:17:24;;;;;;;16.10;15.00;;;6.80;20.60;;;;;;6252227;22;20456;-82
2024/01/29 04:19:49;;;;;;;16.50;15.40;;;6.80;20.00;;;;;;6251632;22;20163;-82
2024/01/29 04:22:15;;;;;;;16.77;15.67;;;7.00;20.40;;;;;;6251269;22;20184;-82
2024/01/29 04:24:41;;;;;;;16.17;15.10;;;7.10;19.80;;;;;;6252736;22;20190;-82
2024/01/29 04:27:06;;;;;;;15.43;14.30;;;7.40;19.10;;;;;;6253997;22;20175;-82
2024/01/29 04:29:32;;;;;;;14.60;13.70;;;7.70;18.60;;;;;;6253287;22;20151;-82
2024/01/29 04:31:57;;;;;;;15.83;14.73;;;7.90;17.90;;;;;;6253479;22;20151;-81
2024/01/29 04:34:23;;;;;;;15.53;14.43;;;8.00;17.30;;;;;;6280668;22;20174;-82
2024/01/29 04:36:48;;;;;;;14.33;13.40;;;8.10;17.50;;;;;;6252178;22;20174;-82
2024/01/29 04:39:14;;;;;;;15.10;14.10;;;8.00;17.80;;;;;;6253084;22;20162;-82
2024/01/29 04:41:40;;;;;;;14.63;13.73;;;8.00;17.80;;;;;;6250832;22;20584;-83
2024/01/29 04:44:05;;;;;;;15.33;14.33;;;7.90;17.80;;;;;;6251456;22;20584;-83
2024/01/29 04:46:31;;;;;;;14.80;13.80;;;8.00;17.90;;;;;;6251755;22;20243;-83
2024/01/29 04:48:57;;;;;;;14.73;13.83;;;8.10;17.40;;;;;;6252552;22;20157;-82
2024/01/29 04:51:22;;;;;;;14.67;13.77;;;8.30;17.10;;;;;;6252538;22;20539;-82
2024/01/29 04:53:48;;;;;;;15.23;14.23;;;8.40;17.30;;;;;;6254294;22;20643;-82
2024/01/29 04:56:13;;;;;;;14.90;13.90;;;8.40;16.60;;;;;;6254080;22;20242;-81
2024/01/29 04:58:39;;;;;;;13.27;12.50;;;8.50;16.60;;;;;;6254555;22;20166;-82
2024/01/29 05:01:04;;;;;;;14.87;13.90;;;8.50;16.40;;;;;;6281103;22;20195;-82
2024/01/29 05:03:30;;;;;;;14.57;13.60;;;8.00;17.00;;;;;;6253677;22;20899;-82
2024/01/29 05:05:56;;;;;;;13.77;13.00;;;7.60;17.90;;;;;;6252267;22;20233;-82
2024/01/29 05:08:22;;;;;;;15.43;14.43;;;7.20;19.80;;;;;;6280316;22;20677;-84
2024/01/29 05:10:48;;;;;;;15.47;14.47;;;6.80;20.10;;;;;;6248811;22;20161;-81
2024/01/29 05:13:15;;;;;;;16.10;15.07;;;6.70;20.30;;;;;;6251018;22;20508;-81
2024/01/29 05:15:41;;;;;;;16.27;15.27;;;6.70;20.70;;;;;;6278418;22;20147;-80
2024/01/29 05:18:07;;;;;;;15.73;14.53;;;6.70;21.30;;;;;;6278844;22;20709;-80
2024/01/29 05:20:32;;;;;;;15.70;14.70;;;6.80;20.90;;;;;;6278860;22;20150;-80
2024/01/29 05:22:58;;;;;;;16.00;14.80;;;7.10;20.30;;;;;;6253442;22;20619;-81
2024/01/29 05:25:23;;;;;;;15.20;14.20;;;7.40;19.50;;;;;;6249455;22;20183;-82
2024/01/29 05:27:49;;;;;;;16.40;15.30;;;7.40;19.40;;;;;;6252400;22;20182;-82
2024/01/29 05:30:15;;;;;;;16.87;15.87;;;7.50;19.00;;;;;;6253408;22;20174;-82
2024/01/29 05:32:44;;;;;;;15.77;14.70;;;7.70;18.80;;;;;;6279529;22;20427;-82
2024/01/29 05:35:10;;;;;;;15.00;14.10;;;7.80;18.40;;;;;;6251292;22;20398;-82
2024/01/29 05:37:38;;;;;;;16.10;14.93;;;7.90;18.00;;;;;;6252152;22;20694;-82
2024/01/29 05:40:05;;;;;;;16.97;15.77;;;7.90;18.00;;;;;;6252952;22;20410;-82
2024/01/29 05:42:30;;;;;;;16.13;15.03;;;7.90;18.10;;;;;;6278558;22;20384;-82
2024/01/29 05:44:59;;;;;;;15.50;14.50;;;7.80;17.80;;;;;;6278682;22;20397;-82
2024/01/29 05:47:24;;;;;;;14.33;13.27;;;7.50;18.20;;;;;;6278893;22;20421;-83
2024/01/29 05:49:50;;;;;;;15.30;14.30;;;7.20;18.30;;;;;;6258597;22;20385;-83
2024/01/29 05:52:18;;;;;;;14.37;13.47;;;7.20;19.00;;;;;;6256996;22;20151;-82
2024/01/29 05:54:44;;;;;;;14.20;13.30;;;7.30;18.80;;;;;;6253127;22;20186;-82
2024/01/29 05:57:10;;;;;;;14.50;13.50;;;7.50;18.40;;;;;;6254371;22;20432;-82
2024/01/29 05:59:39;;;;;;;13.20;12.40;;;7.60;17.90;;;;;;6255793;22;20161;-83
2024/01/29 06:02:07;;;;;;;13.67;12.87;;;7.60;17.50;;;;;;6257848;22;20472;-82
2024/01/29 06:04:38;;;;;;;14.97;13.83;;;7.70;17.50;;;;;;6257347;22;20406;-81
2024/01/29 06:07:05;;;;;;;14.50;13.53;;;7.70;17.70;;;;;;6255227;22;20429;-82
2024/01/29 06:09:34;;;;;;;15.80;14.53;;;7.70;17.60;;;;;;6257082;22;20439;-83
2024/01/29 06:12:00;;;;;;;14.63;13.73;;;7.70;17.50;;;;;;6255177;22;20377;-84
2024/01/29 06:14:31;;;;;;;14.30;13.40;;;7.80;17.30;;;;;;6255227;22;20745;-83
2024/01/29 06:16:57;;;;;;;13.67;12.97;;;7.80;17.20;;;;;;6257996;22;20215;-84
2024/01/29 06:19:24;;;;;;;14.40;13.60;;;7.80;17.20;;;;;;6255859;22;20851;-84
2024/01/29 06:21:50;;;;;;;14.03;13.13;;;7.80;17.00;;;;;;6254936;22;20377;-83
2024/01/29 06:24:18;;;;;;;15.43;14.43;;;7.80;17.00;;;;;;6279927;22;20477;-83
2024/01/29 06:26:47;;;;;;;13.53;12.60;;;7.80;17.30;;;;;;6281154;22;20377;-83
2024/01/29 06:29:13;;;;;;;16.33;15.30;;;7.80;17.40;;;;;;6254558;22;20430;-83
2024/01/29 06:31:40;;;;;;;16.17;15.30;;;7.70;17.80;;;;;;6255401;22;20374;-83
2024/01/29 06:34:08;;;;;;;17.20;16.00;;;7.70;18.20;;;;;;6255189;22;20179;-83
2024/01/29 06:36:34;;;;;;;16.50;15.60;;;7.70;18.30;;;;;;6255657;22;20378;-83
2024/01/29 06:38:59;;;;;;;15.47;14.47;;;7.70;18.20;;;;;;6265271;22;20423;-82
2024/01/29 06:41:26;;;;;;;16.97;15.93;;;7.70;18.30;;;;;;6258022;22;20191;-84
2024/01/29 06:43:53;;;;;;;15.20;14.10;;;7.60;18.40;;;;;;6255580;22;20198;-83
2024/01/29 06:46:20;;;;;;;15.43;14.57;;;7.60;18.50;;;;;;6252847;22;20385;-83
2024/01/29 06:48:46;;;;;;;16.57;15.47;;;7.60;18.60;;;;;;6254391;22;20432;-83
2024/01/29 06:52:13;;;;;;;15.47;14.50;;;7.60;18.50;;;;;;6255262;22;20377;-84
2024/01/29 06:54:39;;;;;;;16.43;15.23;;;7.70;18.30;;;;;;6214165;22;20654;-81
2024/01/29 06:57:04;;;;;;;16.13;15.13;;;7.70;18.20;;;;;;6285815;22;20420;-80
2024/01/29 06:59:31;;;;;;;22.57;20.93;;;7.70;18.40;;;;;;6290881;22;20146;-80
2024/01/29 07:01:58;;;;;;;15.13;13.90;;;7.50;18.70;;;;;;6290541;22;20213;-80
2024/01/29 07:04:25;;;;;;;15.53;14.57;;;7.20;19.50;;;;;;6304099;22;20396;-80
2024/01/29 07:06:51;;;;;;;15.33;14.33;;;7.30;19.50;;;;;;6257840;22;20429;-81
2024/01/29 07:09:16;;;;;;;16.80;15.70;;;7.40;19.20;;;;;;6286067;22;20445;-80
2024/01/29 07:11:42;;;;;;;15.13;14.20;;;7.50;18.90;;;;;;6284799;22;20185;-80
2024/01/29 07:14:08;;;;;;;16.20;15.10;;;7.50;18.70;;;;;;6284672;22;20167;-80
2024/01/29 07:16:33;;;;;;;15.13;14.10;;;7.60;18.80;;;;;;6255357;22;20151;-81
2024/01/29 07:18:59;;;;;;;16.33;15.13;;;7.60;18.50;;;;;;6282201;22;20147;-78
2024/01/29 07:21:24;;;;;;;14.83;13.63;;;7.60;18.40;;;;;;6282299;22;20147;-79
2024/01/29 07:23:50;;;;;;;15.40;14.50;;;7.70;18.50;;;;;;6281936;22;20171;-78
2024/01/29 07:26:16;;;;;;;14.90;14.00;;;7.70;18.20;;;;;;6281641;22;20153;-80
2024/01/29 07:28:41;;;;;;;14.60;13.67;;;7.80;17.90;;;;;;6257153;22;20186;-81
2024/01/29 07:31:07;;;;;;;15.10;14.20;;;7.80;17.80;;;;;;6257943;22;20161;-82
2024/01/29 07:33:32;;;;;;;14.97;13.97;;;7.80;18.00;;;;;;6282186;22;20239;-79
2024/01/29 07:35:58;;;;;;;15.50;14.50;;;7.80;18.00;;;;;;6254191;22;20173;-80
2024/01/29 07:38:23;;;;;;;14.67;13.70;;;7.90;17.70;;;;;;6284022;22;20147;-81
2024/01/29 07:40:49;;;;;;;13.80;12.90;;;7.90;17.80;;;;;;6256786;22;20162;-80
2024/01/29 07:43:14;;;;;;;13.93;13.10;;;7.90;17.70;;;;;;6258676;22;20196;-80
2024/01/29 07:45:40;;;;;;;14.50;13.47;;;7.80;17.60;;;;;;6282730;22;20261;-80
2024/01/29 07:48:06;;;;;;;14.97;13.97;;;7.90;17.60;;;;;;6290461;22;20257;-77
2024/01/29 07:50:32;;;;;;;15.37;14.17;;;7.90;17.40;;;;;;6303562;22;20154;-81
2024/01/29 07:52:58;;;;;;;14.60;13.70;;;7.90;17.50;;;;;;6277136;22;20202;-81
2024/01/29 07:55:23;;;;;;;15.07;14.10;;;7.90;17.40;;;;;;6302527;22;20413;-81
2024/01/29 07:57:49;;;;;;;14.20;13.20;;;7.90;17.20;;;;;;6302161;22;20262;-78
2024/01/29 08:00:15;;;;;;;14.33;13.43;;;8.00;17.30;;;;;;6254101;22;20772;-81
2024/01/29 08:02:40;;;;;;;13.90;12.90;;;8.00;17.90;;;;;;6289108;22;20151;-81
2024/01/29 08:05:06;;;;;;;14.83;13.73;;;8.00;17.20;;;;;;6261594;22;20167;-79
2024/01/29 08:07:31;;;;;;;14.03;13.13;;;8.00;17.10;;;;;;6287983;22;20213;-80
2024/01/29 08:10:00;;;;;;;14.80;13.53;;;8.00;17.20;;;;;;6282299;22;20151;-79
2024/01/29 08:12:26;;;;;;;14.13;13.00;;;8.00;17.20;;;;;;6283155;22;20150;-80
2024/01/29 08:14:52;;;;;;;14.73;13.50;;;8.00;16.90;;;;;;6256897;22;20393;-79
2024/01/29 08:17:17;;;;;;;16.17;14.80;;;8.00;16.90;;;;;;6287155;22;20147;-81
2024/01/29 08:19:43;;;;;;;14.80;13.87;;;8.00;16.70;;;;;;6264145;22;20616;-81
2024/01/29 08:22:15;;;;;;;14.80;13.60;;;8.10;17.60;;;;;;6254635;22;20604;-80
2024/01/29 08:24:44;;;;;;;14.60;13.60;;;8.10;18.00;;;;;;6248827;22;20175;-82
2024/01/29 08:27:31;;;;;;;14.57;13.57;;;8.10;18.60;;;;;;6261382;22;20418;-83
2024/01/29 08:30:15;;;;;;;16.17;15.17;;;8.10;18.50;;;;;;6234150;22;20449;-81
2024/01/29 08:32:46;;;;;;;14.93;14.03;;;8.20;18.40;;;;;;6253013;22;20381;-80
2024/01/29 08:35:13;;;;;;;16.80;15.43;;;8.20;18.50;;;;;;6261317;22;20424;-80
2024/01/29 08:37:39;;;;;;;17.80;16.50;;;8.30;18.90;;;;;;6259080;22;20405;-79
2024/01/29 08:40:06;;;;;;;15.40;14.33;;;8.30;17.60;;;;;;6253806;22;20411;-79
2024/01/29 08:42:32;;;;;;;16.50;15.40;;;8.30;17.30;;;;;;6285195;22;20173;-80
2024/01/29 08:44:57;;;;;;;15.63;14.63;;;8.10;16.60;;;;;;6284118;22;20516;-80
2024/01/29 08:47:23;;;;;;;16.53;15.43;;;8.00;17.60;;;;;;6283552;22;20492;-82
2024/01/29 08:49:51;;;;;;;15.53;14.23;;;8.00;17.20;;;;;;6279903;22;20193;-79
2024/01/29 08:52:17;;;;;;;15.50;14.17;;;8.10;17.10;;;;;;6257517;22;20649;-80
2024/01/29 08:54:44;;;;;;;15.67;14.67;;;8.20;16.90;;;;;;6256003;22;20413;-80
2024/01/29 08:57:09;;;;;;;14.70;13.70;;;8.20;16.60;;;;;;6282367;22;20377;-80
2024/01/29 08:59:35;;;;;;;16.47;15.07;;;8.30;16.60;;;;;;6285711;22;20440;-81
2024/01/29 09:02:01;;;;;;;14.70;13.60;;;8.30;16.40;;;;;;6281685;22;20158;-81
2024/01/29 09:04:27;;;;;;;15.70;14.23;;;8.40;16.20;;;;;;6257253;22;20253;-81
2024/01/29 09:06:53;;;;;;;15.33;14.20;;;8.50;16.20;;;;;;6284001;22;20177;-81
2024/01/29 09:09:18;;;;;;;15.70;14.63;;;8.60;16.10;;;;;;6284958;22;20365;-79
2024/01/29 09:11:44;;;;;;;15.87;14.60;;;8.60;16.10;;;;;;6287262;22;20365;-82
2024/01/29 09:14:09;;;;;;;15.67;14.50;;;8.60;15.90;;;;;;6283977;22;20166;-82
2024/01/29 09:16:35;;;;;;;15.47;14.40;;;8.50;15.50;;;;;;6258309;22;20150;-80
2024/01/29 09:19:01;;;;;;;15.47;14.17;;;8.50;16.10;;;;;;6259987;22;20154;-79
2024/01/29 09:21:30;;;;;;;15.50;14.60;;;8.60;16.00;;;;;;6261470;22;20171;-81
2024/01/29 09:23:56;;;;;;;17.30;16.20;;;8.60;15.50;;;;;;6285042;22;20163;-76
2024/01/29 09:26:22;;;;;;;16.13;15.00;;;8.60;15.70;;;;;;6265144;22;20388;-79
2024/01/29 09:28:47;;;;;;;15.97;14.67;;;8.70;15.70;;;;;;6294209;22;20417;-80
2024/01/29 09:31:14;;;;;;;16.00;15.00;;;8.80;15.60;;;;;;6264058;22;20157;-80
2024/01/29 09:33:39;;;;;;;17.77;16.60;;;8.90;15.60;;;;;;6255446;22;20154;-79
2024/01/29 09:36:05;;;;;;;17.13;16.10;;;9.10;15.10;;;;;;6255965;22;20377;-82
2024/01/29 09:38:31;;;;;;;17.53;15.93;;;9.20;15.10;;;;;;6254779;22;20216;-81
2024/01/29 09:40:58;;;;;;;16.03;14.67;;;9.30;14.90;;;;;;6257116;22;20619;-80
2024/01/29 09:43:26;;;;;;;17.93;16.57;;;9.40;14.50;;;;;;6258149;22;20385;-80
2024/01/29 09:45:53;;;;;;;16.20;15.10;;;9.40;14.80;;;;;;6256866;22;20382;-80
2024/01/29 09:48:27;;;;;;;16.03;14.93;;;9.40;14.60;;;;;;6257687;22;20739;-81
2024/01/29 09:50:54;;;;;;;16.60;15.30;;;9.50;14.30;;;;;;6257222;22;20381;-81
2024/01/29 09:53:21;;;;;;;17.20;15.90;;;9.40;14.60;;;;;;6258306;22;20381;-80
2024/01/29 09:55:46;;;;;;;15.90;15.00;;;9.40;14.70;;;;;;6257989;22;20412;-80
2024/01/29 09:58:12;;;;;;;17.17;15.93;;;9.40;14.70;;;;;;6258510;22;20381;-80
2024/01/29 10:00:37;;;;;;;16.83;15.53;;;9.40;14.80;;;;;;6286556;22;20147;-81
2024/01/29 10:03:05;;;;;;;17.50;16.17;;;9.40;15.10;;;;;;6259618;22;20170;-82
2024/01/29 10:05:33;;;;;;;17.93;16.50;;;9.40;14.20;;;;;;6258666;22;20238;-82
2024/01/29 10:08:02;;;;;;;16.93;15.73;;;9.40;14.80;;;;;;6257704;22;20432;-80
2024/01/29 10:10:33;;;;;;;17.20;15.83;;;9.40;14.40;;;;;;6234194;22;20386;-81
2024/01/29 10:13:08;;;;;;;16.40;14.97;;;9.40;14.20;;;;;;6258454;22;20803;-81
2024/01/29 10:15:37;;;;;;;16.57;15.47;;;9.50;13.90;;;;;;6283633;22;20408;-81
2024/01/29 10:18:10;;;;;;;17.20;16.00;;;9.60;14.30;;;;;;6254670;22;20477;-81
2024/01/29 10:20:37;;;;;;;16.90;15.80;;;9.60;14.50;;;;;;6229101;22;20392;-81
2024/01/29 10:23:09;;;;;;;16.37;15.17;;;9.60;14.20;;;;;;6252005;22;20428;-81
2024/01/29 10:25:38;;;;;;;17.10;15.83;;;9.60;14.10;;;;;;6226170;22;20416;-83
2024/01/29 10:28:12;;;;;;;14.23;13.33;;;9.40;14.50;;;;;;6259498;22;20473;-81
2024/01/29 10:30:44;;;;;;;14.53;13.53;;;9.50;14.80;;;;;;6259304;22;20874;-80
2024/01/29 10:33:13;;;;;;;15.83;14.53;;;9.60;14.70;;;;;;6254742;22;20843;-81
2024/01/29 10:35:38;;;;;;;16.20;15.00;;;9.70;14.70;;;;;;6281004;22;20405;-81
2024/01/29 10:38:05;;;;;;;15.80;14.70;;;9.70;14.00;;;;;;6254999;22;20933;-81
2024/01/29 10:40:32;;;;;;;15.60;14.50;;;9.70;15.20;;;;;;6255556;22;20155;-82
2024/01/29 10:42:59;;;;;;;16.10;15.20;;;9.70;14.40;;;;;;6260025;22;20382;-80
2024/01/29 10:45:26;;;;;;;16.53;15.30;;;9.80;13.60;;;;;;6258816;22;20409;-80
2024/01/29 10:48:07;;;;;;;15.83;14.60;;;9.90;13.60;;;;;;6287620;22;20420;-80
2024/01/29 10:50:33;;;;;;;16.03;15.10;;;10.00;12.80;;;;;;6260368;22;20383;-81
2024/01/29 10:53:00;;;;;;;16.80;15.70;;;10.00;12.90;;;;;;6260474;22;20389;-81
2024/01/29 10:55:30;;;;;;;16.63;15.43;;;10.10;12.50;;;;;;6260760;22;20214;-80
2024/01/29 10:58:01;;;;;;;17.27;16.07;;;10.20;12.10;;;;;;6286009;22;20379;-81
2024/01/29 11:00:27;;;;;;;16.67;15.67;;;10.20;12.20;;;;;;6258097;22;20378;-81
2024/01/29 11:02:54;;;;;;;15.60;14.50;;;10.20;12.40;;;;;;6253971;22;20885;-82
2024/01/29 11:05:20;;;;;;;16.00;14.80;;;10.30;12.20;;;;;;6253541;22;20409;-82
2024/01/29 11:07:46;;;;;;;15.03;14.07;;;10.30;12.10;;;;;;6281973;22;20416;-81
2024/01/29 11:10:20;;;;;;;16.20;15.00;;;10.40;11.70;;;;;;6261216;22;20386;-82
2024/01/29 11:12:47;;;;;;;16.27;15.07;;;10.40;11.60;;;;;;6287015;22;20429;-81
2024/01/29 11:15:13;;;;;;;14.57;13.57;;;10.50;11.70;;;;;;6286815;22;20396;-81
2024/01/29 11:17:40;;;;;;;15.53;14.33;;;10.50;11.70;;;;;;6256712;22;20468;-81
2024/01/29 11:20:14;;;;;;;15.77;14.87;;;10.50;11.80;;;;;;6261521;22;20154;-81
2024/01/29 11:22:51;;;;;;;15.67;14.57;;;10.60;11.80;;;;;;6265084;22;20439;-83
2024/01/29 11:25:20;;;;;;;15.80;14.40;;;10.60;11.60;;;;;;6286233;22;20866;-82
2024/01/29 11:27:47;;;;;;;16.53;15.43;;;10.60;12.20;;;;;;6258953;22;20417;-81
2024/01/29 11:30:23;;;;;;;15.63;14.63;;;10.70;11.80;;;;;;6260506;22;20381;-80
2024/01/29 11:32:50;;;;;;;16.57;15.37;;;10.80;12.50;;;;;;6262148;22;20373;-80
2024/01/29 11:35:26;;;;;;;14.33;13.43;;;10.90;11.70;;;;;;6260907;22;20397;-82
2024/01/29 11:37:52;;;;;;;16.37;15.30;;;11.00;11.80;;;;;;6256344;22;20392;-82
2024/01/29 11:40:34;;;;;;;16.17;15.13;;;11.10;11.90;;;;;;6258064;22;20929;-79
2024/01/29 11:43:16;;;;;;;15.87;14.50;;;11.20;11.70;;;;;;6288466;22;20423;-80
2024/01/29 11:45:47;;;;;;;16.97;15.67;;;11.30;11.70;;;;;;6259874;22;20415;-80
2024/01/29 11:48:14;;;;;;;18.07;16.87;;;11.40;11.90;;;;;;6260644;22;20422;-81
2024/01/29 11:50:46;;;;;;;16.37;15.27;;;11.40;11.80;;;;;;6262065;22;20413;-82
2024/01/29 11:53:17;;;;;;;16.83;15.50;;;11.40;11.30;;;;;;6260572;22;20819;-80
2024/01/29 11:55:46;;;;;;;16.07;14.97;;;11.50;11.70;;;;;;6260748;22;20416;-79
2024/01/29 11:58:20;;;;;;;17.93;16.73;;;11.50;11.50;;;;;;6260699;22;20392;-80
2024/01/29 12:00:48;;;;;;;15.90;14.90;;;11.50;11.60;;;;;;6288379;22;20827;-81
2024/01/29 12:03:19;;;;;;;16.80;15.80;;;11.50;11.30;;;;;;6288027;22;20374;-81
2024/01/29 12:05:45;;;;;;;15.37;14.30;;;11.50;10.80;;;;;;6262658;22;20405;-82
2024/01/29 12:08:18;;;;;;;15.60;14.70;;;11.60;10.90;;;;;;6262534;22;20918;-83
2024/01/29 12:10:45;;;;;;;15.63;14.63;;;11.60;10.80;;;;;;6261929;22;20381;-81
2024/01/29 12:13:15;;;;;;;14.80;14.00;;;11.70;10.60;;;;;;6260989;22;20421;-81
2024/01/29 12:15:41;;;;;;;16.07;14.73;;;11.80;10.80;;;;;;6257613;22;20543;-81
2024/01/29 12:18:13;;;;;;;15.67;14.50;;;11.80;11.20;;;;;;6260726;22;20392;-80
2024/01/29 12:20:38;;;;;;;17.20;15.93;;;11.80;11.30;;;;;;6285447;22;20362;-80
2024/01/29 12:23:05;;;;;;;14.80;13.80;;;11.80;11.90;;;;;;6262854;22;20385;-81
2024/01/29 12:25:31;;;;;;;16.03;15.03;;;11.80;11.20;;;;;;6259311;22;20170;-82
2024/01/29 12:28:05;;;;;;;15.53;14.43;;;11.90;11.00;;;;;;6255866;22;20417;-80
2024/01/29 12:30:30;;;;;;;15.97;14.50;;;11.90;11.00;;;;;;6284595;22;20391;-82
2024/01/29 12:32:56;;;;;;;15.13;14.10;;;11.90;11.20;;;;;;6286775;22;20397;-80
2024/01/29 12:35:29;;;;;;;14.73;13.83;;;12.00;11.00;;;;;;6258718;22;20248;-80